createdAt,value
2019-02-27T00:02:22.680Z,15.05
2019-02-27T00:05:00.371Z,19.23
2019-02-27T00:07:41.134Z,20.80
2019-02-27T00:10:21.255Z,19.32
2019-02-27T00:13:01.535Z,17.32
2019-02-27T00:15:42.988Z,17.50
2019-02-27T00:18:23.948Z,15.68
2019-02-27T00:21:04.548Z,15.00
2019-02-27T00:23:44.108Z,16.35
2019-02-27T00:26:23.463Z,16.80
2019-02-27T00:29:02.810Z,17.50
2019-02-27T00:31:45.522Z,18.25
2019-02-27T00:34:23.328Z,18.23
2019-02-27T00:37:06.086Z,19.23
2019-02-27T00:39:46.394Z,20.00
2019-02-27T00:42:33.230Z,21.25
2019-02-27T00:45:07.027Z,21.20
2019-02-27T00:47:46.672Z,21.25
2019-02-27T00:53:59.058Z,19.60
2019-02-27T00:56:44.661Z,17.32
2019-02-27T00:59:20.534Z,16.97
2019-02-27T01:01:59.890Z,16.42
2019-02-27T01:04:40.292Z,14.90
2019-02-27T01:07:21.431Z,13.60
2019-02-27T01:10:00.844Z,11.73
2019-02-27T01:12:40.759Z,13.30
2019-02-27T01:21:54.303Z,14.63
2019-02-27T01:24:34.386Z,13.72
2019-02-27T01:27:14.271Z,12.80
2019-02-27T01:29:53.900Z,16.02
2019-02-27T01:32:39.777Z,14.15
2019-02-27T01:35:21.231Z,13.70
2019-02-27T01:38:05.088Z,13.22
2019-02-27T01:40:42.884Z,13.75
2019-02-27T01:43:22.824Z,12.70
2019-02-27T01:46:02.080Z,13.28
2019-02-27T01:48:43.598Z,13.00
2019-02-27T01:51:21.498Z,12.85
2019-02-27T01:54:00.739Z,12.30
2019-02-27T01:56:40.465Z,12.93
2019-02-27T01:59:21.796Z,12.45
2019-02-27T02:02:01.050Z,11.60
2019-02-27T02:04:41.765Z,11.57
2019-02-27T02:07:21.225Z,12.40
2019-02-27T02:10:00.514Z,12.73
2019-02-27T02:12:41.661Z,12.28
2019-02-27T02:15:48.798Z,11.63
2019-02-27T02:18:54.479Z,10.60
2019-02-27T02:21:49.226Z,10.40
2019-02-27T02:25:05.765Z,12.65
2019-02-27T02:28:15.410Z,12.95
2019-02-27T02:31:49.467Z,12.30
2019-02-27T02:35:01.148Z,12.95
2019-02-27T02:38:19.137Z,11.90
2019-02-27T02:41:30.077Z,12.28
2019-02-27T02:44:32.393Z,12.95
2019-02-27T02:47:45.590Z,12.28
2019-02-27T02:50:58.866Z,12.23
2019-02-27T02:54:41.181Z,13.25
2019-02-27T02:57:57.889Z,14.13
2019-02-27T03:01:15.504Z,13.95
2019-02-27T03:04:06.444Z,14.00
2019-02-27T03:07:19.416Z,13.22
2019-02-27T03:10:20.052Z,12.75
2019-02-27T03:13:30.568Z,11.97
2019-02-27T03:16:34.239Z,13.07
2019-02-27T03:22:13.366Z,14.45
2019-02-27T03:25:18.368Z,13.15
2019-02-27T03:28:30.967Z,14.53
2019-02-27T03:31:57.819Z,15.50
2019-02-27T03:35:27.925Z,14.35
2019-02-27T03:41:23.607Z,15.18
2019-02-27T03:44:30.073Z,15.83
2019-02-27T03:48:00.550Z,15.50
2019-02-27T03:51:16.982Z,16.15
2019-02-27T03:54:26.180Z,16.67
2019-02-27T03:57:42.720Z,15.65
2019-02-27T04:01:02.849Z,14.43
2019-02-27T04:04:08.457Z,13.95
2019-02-27T04:07:14.369Z,15.05
2019-02-27T04:09:56.407Z,17.62
2019-02-27T04:12:36.952Z,16.93
2019-02-27T04:15:18.082Z,17.73
2019-02-27T04:17:54.291Z,16.87
2019-02-27T04:20:33.396Z,16.20
2019-02-27T04:23:12.872Z,16.87
2019-02-27T04:25:53.612Z,15.72
2019-02-27T04:28:35.999Z,17.07
2019-02-27T04:31:18.601Z,16.48
2019-02-27T04:34:00.267Z,17.40
2019-02-27T04:36:38.614Z,17.07
2019-02-27T04:39:18.638Z,16.73
2019-02-27T04:42:10.141Z,18.70
2019-02-27T04:44:51.832Z,19.37
2019-02-27T04:47:31.301Z,18.32
2019-02-27T04:50:11.341Z,18.30
2019-02-27T04:52:51.181Z,21.10
2019-02-27T04:55:32.198Z,17.48
2019-02-27T04:58:22.502Z,18.00
2019-02-27T05:01:02.363Z,19.05
2019-02-27T05:03:46.719Z,20.35
2019-02-27T05:06:31.269Z,19.10
2019-02-27T05:09:12.806Z,19.55
2019-02-27T05:11:57.191Z,18.63
2019-02-27T05:14:37.705Z,18.90
2019-02-27T05:17:21.169Z,19.87
2019-02-27T05:19:57.808Z,18.98
2019-02-27T05:22:41.195Z,18.90
2019-02-27T05:25:24.077Z,20.37
2019-02-27T05:30:44.784Z,18.27
2019-02-27T05:33:22.949Z,21.62
2019-02-27T05:36:02.333Z,17.30
2019-02-27T05:38:43.626Z,16.77
2019-02-27T05:41:23.470Z,16.93
2019-02-27T05:44:02.533Z,17.00
2019-02-27T05:46:43.224Z,16.82
2019-02-27T05:49:27.378Z,18.20
2019-02-27T05:52:07.795Z,18.82
2019-02-27T05:54:48.323Z,17.90
2019-02-27T05:57:29.108Z,17.30
2019-02-27T06:00:08.785Z,16.82
2019-02-27T06:02:49.135Z,18.20
2019-02-27T06:05:28.017Z,16.25
2019-02-27T06:08:07.780Z,17.57
2019-02-27T06:10:47.092Z,16.65
2019-02-27T06:13:27.571Z,17.65
2019-02-27T06:16:09.190Z,16.62
2019-02-27T06:18:48.499Z,17.77
2019-02-27T06:21:28.474Z,18.90
2019-02-27T06:24:11.656Z,17.42
2019-02-27T06:26:48.860Z,18.00
2019-02-27T06:29:29.209Z,18.57
2019-02-27T06:32:17.283Z,17.90
2019-02-27T06:34:59.281Z,19.75
2019-02-27T06:37:37.253Z,19.10
2019-02-27T06:40:18.321Z,17.12
2019-02-27T06:42:58.901Z,17.45
2019-02-27T06:45:38.446Z,18.20
2019-02-27T06:48:18.645Z,18.52
2019-02-27T06:50:58.231Z,19.85
2019-02-27T06:53:38.957Z,18.15
2019-02-27T06:56:17.891Z,19.90
2019-02-27T06:58:57.236Z,18.77
2019-02-27T07:01:36.426Z,19.05
2019-02-27T07:04:15.536Z,19.45
2019-02-27T07:07:13.078Z,20.50
2019-02-27T07:09:53.679Z,20.85
2019-02-27T07:12:32.852Z,20.00
2019-02-27T07:15:13.504Z,21.33
2019-02-27T07:17:53.919Z,19.45
2019-02-27T07:20:33.151Z,20.45
2019-02-27T07:23:12.294Z,21.42
2019-02-27T07:25:51.437Z,20.82
2019-02-27T07:28:30.908Z,20.77
2019-02-27T07:31:10.097Z,18.45
2019-02-27T07:33:49.891Z,18.70
2019-02-27T07:36:29.908Z,20.37
2019-02-27T07:39:10.401Z,20.75
2019-02-27T07:41:49.500Z,18.80
2019-02-27T07:44:34.699Z,17.87
2019-02-27T07:47:10.913Z,20.05
2019-02-27T07:49:53.276Z,17.75
2019-02-27T07:52:33.292Z,19.15
2019-02-27T07:55:21.649Z,18.92
2019-02-27T07:57:58.392Z,21.60
2019-02-27T08:00:37.347Z,21.05
2019-02-27T08:03:16.692Z,19.48
2019-02-27T08:05:59.840Z,19.73
2019-02-27T08:08:39.411Z,18.42
2019-02-27T08:11:18.507Z,19.05
2019-02-27T08:14:03.363Z,18.60
2019-02-27T08:16:42.142Z,18.55
2019-02-27T08:19:21.581Z,24.90
2019-02-27T08:22:00.778Z,20.72
2019-02-27T08:24:39.744Z,19.05
2019-02-27T08:27:19.107Z,19.23
2019-02-27T08:29:59.778Z,18.77
2019-02-27T08:32:39.653Z,19.27
2019-02-27T08:35:18.931Z,19.55
2019-02-27T08:38:02.633Z,20.92
2019-02-27T08:40:41.065Z,20.43
2019-02-27T08:43:19.686Z,19.40
2019-02-27T08:46:02.124Z,20.23
2019-02-27T08:48:39.276Z,22.17
2019-02-27T08:51:19.188Z,21.10
2019-02-27T08:53:59.281Z,20.15
2019-02-27T08:56:39.849Z,20.53
2019-02-27T08:59:21.251Z,22.62
2019-02-27T09:02:00.478Z,21.50
2019-02-27T09:04:42.831Z,20.10
2019-02-27T09:07:24.529Z,20.97
2019-02-27T09:10:14.487Z,20.43
2019-02-27T09:13:04.447Z,20.75
2019-02-27T09:15:36.318Z,21.07
2019-02-27T09:18:15.645Z,20.62
2019-02-27T09:20:55.478Z,19.90
2019-02-27T09:23:34.584Z,19.65
2019-02-27T09:26:13.785Z,19.60
2019-02-27T09:28:54.084Z,20.43
2019-02-27T09:31:34.769Z,20.52
2019-02-27T09:34:13.766Z,19.62
2019-02-27T09:36:53.084Z,21.10
2019-02-27T09:39:32.383Z,21.77
2019-02-27T09:42:11.492Z,19.32
2019-02-27T09:44:50.739Z,20.85
2019-02-27T09:47:30.147Z,20.52
2019-02-27T09:50:14.123Z,20.20
2019-02-27T09:52:53.525Z,22.05
2019-02-27T09:55:32.983Z,20.57
2019-02-27T09:58:15.594Z,20.77
2019-02-27T10:01:00.306Z,19.80
2019-02-27T10:03:38.986Z,17.87
2019-02-27T10:06:18.498Z,18.42
2019-02-27T10:08:59.076Z,17.23
2019-02-27T10:11:39.269Z,18.37
2019-02-27T10:14:19.502Z,17.75
2019-02-27T10:17:00.351Z,18.05
2019-02-27T10:19:39.662Z,18.00
2019-02-27T10:22:20.323Z,18.10
2019-02-27T10:24:59.793Z,17.32
2019-02-27T10:27:49.752Z,17.73
2019-02-27T10:30:29.281Z,16.75
2019-02-27T10:33:11.169Z,16.48
2019-02-27T10:35:51.905Z,17.00
2019-02-27T10:38:32.582Z,16.80
2019-02-27T10:41:12.077Z,17.25
2019-02-27T10:43:51.053Z,17.30
2019-02-27T10:46:30.436Z,16.93
2019-02-27T10:49:10.003Z,17.67
2019-02-27T10:51:51.197Z,18.02
2019-02-27T10:54:30.856Z,17.37
2019-02-27T10:57:10.216Z,17.40
2019-02-27T10:59:51.876Z,17.45
2019-02-27T11:02:31.701Z,18.07
2019-02-27T11:05:11.418Z,17.35
2019-02-27T11:07:53.064Z,17.62
2019-02-27T11:10:32.974Z,17.10
2019-02-27T11:13:12.279Z,17.52
2019-02-27T11:15:51.401Z,17.02
2019-02-27T11:18:31.109Z,17.45
2019-02-27T11:21:14.419Z,18.07
2019-02-27T11:23:57.850Z,19.17
2019-02-27T11:26:43.236Z,19.07
2019-02-27T11:29:27.867Z,18.42
2019-02-27T11:32:09.707Z,19.10
2019-02-27T11:34:52.116Z,18.98
2019-02-27T11:37:35.427Z,18.87
2019-02-27T11:40:24.203Z,19.52
2019-02-27T11:43:07.651Z,17.65
2019-02-27T11:45:51.521Z,17.12
2019-02-27T11:48:31.840Z,17.95
2019-02-27T11:51:13.962Z,17.65
2019-02-27T11:53:53.867Z,18.55
2019-02-27T11:56:34.820Z,18.82
2019-02-27T11:59:15.512Z,17.57
2019-02-27T12:01:56.261Z,19.02
2019-02-27T12:04:35.295Z,17.67
2019-02-27T12:07:17.228Z,18.00
2019-02-27T12:09:55.799Z,18.05
2019-02-27T12:12:35.144Z,17.92
2019-02-27T12:15:15.721Z,19.10
2019-02-27T12:17:59.977Z,18.98
2019-02-27T12:20:36.444Z,18.07
2019-02-27T14:43:10.127Z,19.27
2019-02-27T14:45:50.907Z,19.15
2019-02-27T14:48:30.100Z,19.02
2019-02-27T14:51:11.073Z,20.05
2019-02-27T14:53:51.929Z,18.60
2019-02-27T14:56:29.380Z,18.73
2019-02-27T14:59:09.767Z,19.17
2019-02-27T15:01:49.226Z,18.37
2019-02-27T15:04:28.902Z,17.95
2019-02-27T15:07:08.097Z,18.23
2019-02-27T15:09:47.972Z,17.87
2019-02-27T15:12:25.771Z,17.37
2019-02-27T15:15:09.461Z,18.00
2019-02-27T15:17:51.212Z,17.85
2019-02-27T15:20:29.675Z,17.55
2019-02-27T15:25:48.338Z,17.00
2019-02-27T15:28:32.915Z,18.12
2019-02-27T15:31:10.067Z,17.80
2019-02-27T15:33:48.321Z,17.87
2019-02-27T15:36:37.530Z,17.48
2019-02-27T15:39:20.274Z,18.82
2019-02-27T15:41:58.961Z,20.62
2019-02-27T15:44:40.262Z,19.00
2019-02-27T15:47:20.539Z,19.45
2019-02-27T15:50:02.698Z,19.73
2019-02-27T15:52:44.484Z,21.50
2019-02-27T15:55:38.765Z,21.60
2019-02-27T15:58:18.260Z,21.35
2019-02-27T16:00:56.871Z,20.72
2019-02-27T16:03:34.833Z,21.60
2019-02-27T16:06:27.215Z,21.37
2019-02-27T16:09:11.159Z,21.33
2019-02-27T16:11:51.487Z,21.17
2019-02-27T16:14:31.841Z,21.57
2019-02-27T16:17:19.164Z,22.50
2019-02-27T16:19:59.515Z,21.82
2019-02-27T16:23:29.499Z,23.70
2019-02-27T16:26:12.626Z,26.52
2019-02-27T16:28:54.368Z,24.63
2019-02-27T16:31:31.984Z,24.15
2019-02-27T16:34:12.361Z,22.42
2019-02-27T16:36:49.991Z,23.38
2019-02-27T16:39:27.743Z,26.77
2019-02-27T16:42:06.250Z,24.80
2019-02-27T16:44:46.033Z,25.32
2019-02-27T16:47:25.046Z,24.18
2019-02-27T16:50:03.058Z,23.25
2019-02-27T16:52:43.936Z,22.62
2019-02-27T16:55:23.510Z,21.95
2019-02-27T16:58:03.312Z,21.95
2019-02-27T17:00:42.223Z,21.60
2019-02-27T17:03:21.129Z,20.50
2019-02-27T17:05:59.804Z,21.55
2019-02-27T17:08:45.267Z,21.87
2019-02-27T17:14:01.244Z,19.95
2019-02-27T17:16:44.360Z,20.57
2019-02-27T17:19:21.987Z,20.72
2019-02-27T17:22:00.362Z,20.52
2019-02-27T17:24:39.846Z,21.73
2019-02-27T17:27:18.526Z,21.15
2019-02-27T17:29:59.801Z,21.40
2019-02-27T17:32:37.147Z,22.22
2019-02-27T17:35:15.561Z,23.50
2019-02-27T17:37:54.631Z,23.05
2019-02-27T17:40:37.652Z,22.77
2019-02-27T17:43:17.365Z,21.05
2019-02-27T17:45:59.993Z,21.80
2019-02-27T17:48:39.406Z,20.95
2019-02-27T17:51:19.752Z,22.62
2019-02-27T17:53:57.970Z,21.95
2019-02-27T17:56:39.296Z,22.48
2019-02-27T17:59:18.547Z,23.18
2019-02-27T18:01:58.732Z,23.00
2019-02-27T18:04:37.725Z,23.42
2019-02-27T18:07:15.685Z,23.70
2019-02-27T18:09:54.636Z,24.67
2019-02-27T18:12:38.196Z,24.72
2019-02-27T18:15:20.140Z,24.80
2019-02-27T18:17:57.240Z,23.87
2019-02-27T18:20:36.498Z,25.37
2019-02-27T18:23:21.986Z,24.07
2019-02-27T18:25:59.622Z,24.63
2019-02-27T18:28:40.249Z,24.55
2019-02-27T18:31:19.715Z,24.57
2019-02-27T18:33:59.501Z,25.88
2019-02-27T18:36:42.741Z,25.65
2019-02-27T18:39:20.710Z,26.23
2019-02-27T18:41:58.565Z,25.70
2019-02-27T18:44:38.334Z,25.12
2019-02-27T18:47:19.225Z,26.27
2019-02-27T18:49:57.272Z,25.65
2019-02-27T18:52:38.206Z,25.57
2019-02-27T18:55:16.323Z,25.77
2019-02-27T18:57:54.895Z,25.68
2019-02-27T19:00:36.256Z,26.80
2019-02-27T19:03:19.519Z,26.25
2019-02-27T19:05:57.830Z,23.70
2019-02-27T19:08:37.595Z,23.87
2019-02-27T19:11:16.010Z,24.02
2019-02-27T19:13:55.197Z,24.45
2019-02-27T19:16:34.498Z,23.67
2019-02-27T19:19:13.773Z,22.50
2019-02-27T19:21:55.335Z,23.22
2019-02-27T19:24:34.169Z,22.32
2019-02-27T19:27:12.004Z,23.50
2019-02-27T19:29:50.087Z,22.48
2019-02-27T19:32:29.870Z,22.85
2019-02-27T19:35:09.079Z,22.50
2019-02-27T19:37:48.238Z,23.35
2019-02-27T19:40:29.900Z,23.75
2019-02-27T19:43:07.855Z,22.67
2019-02-27T19:45:46.740Z,24.37
2019-02-27T19:48:26.258Z,24.23
2019-02-27T19:51:04.974Z,24.82
2019-02-27T19:53:42.839Z,23.57
2019-02-27T19:56:21.810Z,23.77
2019-02-27T19:58:59.890Z,23.27
2019-02-27T20:01:42.816Z,24.43
2019-02-27T20:04:19.650Z,23.87
2019-02-27T20:07:01.807Z,23.65
2019-02-27T20:09:39.914Z,22.50
2019-02-27T20:12:19.462Z,22.02
2019-02-27T20:14:58.104Z,23.38
2019-02-27T20:17:36.492Z,21.57
2019-02-27T20:20:15.958Z,22.17
2019-02-27T20:22:54.599Z,21.80
2019-02-27T20:25:32.953Z,21.23
2019-02-27T20:28:17.419Z,29.02
2019-02-27T20:30:56.586Z,24.95
2019-02-27T20:33:37.196Z,23.80
2019-02-27T20:36:16.291Z,22.82
2019-02-27T20:38:56.345Z,23.57
2019-02-27T20:41:34.497Z,25.15
2019-02-27T20:44:12.593Z,25.50
2019-02-27T20:46:51.123Z,24.23
2019-02-27T20:49:30.700Z,24.37
2019-02-27T20:52:14.702Z,25.02
2019-02-27T20:54:48.705Z,24.32
2019-02-27T20:57:28.097Z,25.30
2019-02-27T21:00:08.000Z,25.05
2019-02-27T21:02:50.301Z,24.72
2019-02-27T21:05:27.368Z,25.77
2019-02-27T21:08:08.345Z,27.02
2019-02-27T21:10:54.923Z,33.10
2019-02-27T21:13:31.110Z,37.83
2019-02-27T21:16:13.789Z,25.68
2019-02-27T21:18:52.360Z,24.95
2019-02-27T21:21:32.782Z,24.82
2019-02-27T21:24:13.229Z,24.98
2019-02-27T21:26:50.890Z,25.82
2019-02-27T21:29:29.799Z,23.12
2019-02-27T21:32:10.109Z,24.18
2019-02-27T21:34:49.487Z,24.57
2019-02-27T21:37:28.120Z,23.00
2019-02-27T21:40:09.541Z,20.82
2019-02-27T21:42:52.001Z,26.50
2019-02-27T21:45:37.258Z,29.05
2019-02-27T21:48:16.635Z,22.22
2019-02-27T21:50:57.305Z,20.90
2019-02-27T21:53:37.868Z,21.23
2019-02-27T21:56:18.051Z,20.68
2019-02-27T21:58:56.757Z,19.73
2019-02-27T22:01:37.196Z,20.72
2019-02-27T22:04:19.497Z,21.02
2019-02-27T22:06:59.298Z,19.90
2019-02-27T22:09:44.584Z,20.52
2019-02-27T22:12:27.067Z,19.30
2019-02-27T22:15:07.430Z,21.55
2019-02-27T22:17:46.424Z,21.37
2019-02-27T22:20:27.121Z,20.32
2019-02-27T22:23:07.402Z,20.97
2019-02-27T22:25:47.601Z,20.52
2019-02-27T22:28:28.860Z,21.23
2019-02-27T22:31:07.759Z,21.23
2019-02-27T22:34:03.132Z,21.85
2019-02-27T22:36:54.055Z,21.10
2019-02-27T22:39:39.909Z,19.32
2019-02-27T22:42:24.093Z,21.33
2019-02-27T22:45:04.241Z,24.63
2019-02-27T22:47:45.958Z,23.87
2019-02-27T22:50:26.604Z,20.25
2019-02-27T22:53:18.214Z,21.62
2019-02-27T22:55:58.740Z,20.60
2019-02-27T22:58:37.663Z,21.73
2019-02-27T23:01:33.030Z,22.25
2019-02-27T23:04:15.716Z,22.35
2019-02-27T23:06:54.021Z,21.55
2019-02-27T23:09:33.665Z,22.95
2019-02-27T23:12:12.407Z,24.23
2019-02-27T23:14:52.986Z,24.82
2019-02-27T23:17:32.550Z,25.08
2019-02-27T23:20:11.733Z,24.12
2019-02-27T23:22:53.263Z,23.12
2019-02-27T23:25:34.265Z,23.83
2019-02-27T23:28:16.230Z,22.95
2019-02-27T23:30:55.485Z,23.42
2019-02-27T23:33:35.972Z,22.55
2019-02-27T23:36:13.030Z,23.10
2019-02-27T23:38:51.790Z,22.48
2019-02-27T23:41:32.034Z,21.90
2019-02-27T23:44:12.246Z,22.35
2019-02-27T23:46:57.228Z,22.73
2019-02-27T23:49:33.619Z,21.80
2019-02-27T23:52:15.080Z,22.40
2019-02-27T23:54:54.094Z,24.77
2019-02-27T23:57:33.609Z,22.20
